Green Lake — WDDI — position and weather

sailwx.info

Track history (hours):
 
Tides and Currents Weather Stations Pressure Air Temp Water Temp Dewpoint Dewpoint Depression Visibility Wind Speed Wind Dir Waves Ship Positions

Green Lake

Owner: Seabulk Fleet Management, Tampa, FL. More information available from US FCC via Universal Licensing System and Coast Guard Vessel Documentation Center.

Last reported at 2017-Dec-10 17:24 UTC. Time now 2017-Dec-13 22:27 UTC.
Position N 34°18' W 125°26'.

Type: Ship. MMSI: 369527000.

Date/timePositionNaut miles runAvg speedWind from/ knotsBaromVisibWave heightAir tempDewpointWater temp
2017-Dec-10 17:24N 34°18' W 125°26'1 2.2
2017-Dec-10 17:01N 34°18' W 125°25'1 1.4
2017-Dec-10 16:04N 34°20' W 125°25'0 1.1
2017-Dec-10 15:59N 34°20' W 125°25'1 1.3
2017-Dec-10 15:20N 34°20' W 125°26'1 1.2
2017-Dec-10 14:52N 34°21' W 125°26'2 1.2
2017-Dec-10 13:28N 34°22' W 125°27'3 1.4
2017-Dec-10 10:58N 34°26' W 125°29'1 1.3
2017-Dec-10 10:23N 34°26' W 125°29'1 1.3
2017-Dec-10 09:51N 34°27' W 125°29'1 1.3
2017-Dec-10 09:18N 34°28' W 125°30'0 1.3
2017-Dec-10 09:00N 34°28' W 125°30'1 1.1
2017-Dec-10 08:30N 34°28' W 125°30'0 0.8
2017-Dec-10 08:00N 34°29' W 125°30'0 0.5
2017-Dec-10 07:30N 34°29' W 125°30'0 0.2
2017-Dec-10 07:00N 34°29' W 125°30'2 4.0
2017-Dec-10 06:30N 34°29' W 125°28'816.1
2017-Dec-10 06:00N 34°31' W 125°18'917.1
2017-Dec-10 05:30N 34°31' W 125°08'816.8
2017-Dec-10 05:01N 34°31' W 124°58'816.7
2017-Dec-10 04:30N 34°31' W 124°48'917.2
2017-Dec-10 04:00N 34°31' W 124°37'917.6
2017-Dec-10 03:30N 34°31' W 124°27'917.6
2017-Dec-10 03:01N 34°31' W 124°16'917.4
2017-Dec-10 02:30N 34°30' W 124°05'917.4
2017-Dec-10 02:00N 34°30' W 123°55'917.4
2017-Dec-10 01:31N 34°30' W 123°44'1417.5
2017-Dec-10 00:41N 34°30' W 123°27'317.6
2017-Dec-10 00:29N 34°30' W 123°23'917.6
2017-Dec-10 00:00N 34°30' W 123°12'917.6
2017-Dec-09 23:30N 34°30' W 123°02'917.6
2017-Dec-09 23:00N 34°29' W 122°51'917.7
2017-Dec-09 22:30N 34°29' W 122°40'917.4
2017-Dec-09 22:00N 34°29' W 122°30'817.2
2017-Dec-09 21:30N 34°29' W 122°19'917.0
2017-Dec-09 21:00N 34°29' W 122°09'917.3
2017-Dec-09 20:30N 34°29' W 121°58'917.4
2017-Dec-09 20:00N 34°29' W 121°48'917.4
2017-Dec-09 19:30N 34°28' W 121°37'917.5
2017-Dec-09 19:00N 34°28' W 121°27'917.7
2017-Dec-09 18:31N 34°28' W 121°16'917.7
2017-Dec-09 18:01N 34°28' W 121°05'917.2
2017-Dec-09 17:31N 34°27' W 120°55'917.3
2017-Dec-09 17:01N 34°25' W 120°45'917.6
2017-Dec-09 16:30N 34°23' W 120°34'917.5
2017-Dec-09 16:00N 34°20' W 120°24'917.6
2017-Dec-09 15:30N 34°18' W 120°14'917.8
2017-Dec-09 15:00N 34°15' W 120°04'918.0
2017-Dec-09 14:30N 34°13' W 119°53'917.8
2017-Dec-09 14:00N 34°10' W 119°43'918.1
2017-Dec-09 13:30N 34°08' W 119°32'918.1
2017-Dec-09 13:00N 34°05' W 119°22'714.0
2017-Dec-09 12:30N 34°08' W 119°14'2 1.6
2017-Dec-09 11:32N 34°09' W 119°12'0 0.0
2017-Dec-09 08:47N 34°09' W 119°12'0 0.0
2017-Dec-09 07:17N 34°09' W 119°12'0 0.0
2017-Dec-09 06:47N 34°09' W 119°12'0 0.0
2017-Dec-09 06:29N 34°09' W 119°12'0 0.0
2017-Dec-09 05:59N 34°09' W 119°12'0 0.0
2017-Dec-09 05:17N 34°09' W 119°12'0 0.0
2017-Dec-09 04:56N 34°09' W 119°12'0 0.0
2017-Dec-09 04:20N 34°09' W 119°12'0 0.0
2017-Dec-09 03:53N 34°09' W 119°12'0 0.0
2017-Dec-09 03:29N 34°09' W 119°12'0 0.0
2017-Dec-09 01:47N 34°09' W 119°12'0 0.0
2017-Dec-09 01:17N 34°09' W 119°12'0 0.0
2017-Dec-08 22:59N 34°09' W 119°12'0 0.0
2017-Dec-08 22:11N 34°09' W 119°12'0 0.0
2017-Dec-08 21:35N 34°09' W 119°12'0 0.0
2017-Dec-08 19:44N 34°09' W 119°12'0 0.0
2017-Dec-08 19:29N 34°09' W 119°12'0 0.0
2017-Dec-08 14:56N 34°09' W 119°12'0 0.0
2017-Dec-08 14:29N 34°09' W 119°12'0 0.0
2017-Dec-08 10:16N 34°09' W 119°12'0 0.0
2017-Dec-08 09:58N 34°09' W 119°12'0 0.0
2017-Dec-08 09:29N 34°09' W 119°12'0 0.0
2017-Dec-08 09:00N 34°09' W 119°12'0 0.0
2017-Dec-08 08:28N 34°09' W 119°12'0 0.0
2017-Dec-08 08:00N 34°09' W 119°12'0 0.0
2017-Dec-08 07:28N 34°09' W 119°12'0 0.0
2017-Dec-08 06:57N 34°09' W 119°12'0 0.0
2017-Dec-08 06:30N 34°09' W 119°12'0 0.0
2017-Dec-08 05:58N 34°09' W 119°12'0 0.0
2017-Dec-08 05:30N 34°09' W 119°12'0 0.0
2017-Dec-08 04:59N 34°09' W 119°12'0 0.0
2017-Dec-08 04:30N 34°09' W 119°12'0 0.0
2017-Dec-08 03:59N 34°09' W 119°12'0 0.0
2017-Dec-08 03:30N 34°09' W 119°12'0 0.7
2017-Dec-08 03:00N 34°09' W 119°13'4 6.8
2017-Dec-08 02:28N 34°06' W 119°16'1 1.3
2017-Dec-08 02:00N 34°06' W 119°15'2 3.9
2017-Dec-08 01:30N 34°04' W 119°13'3 5.6
2017-Dec-08 00:57N 34°01' W 119°12'3 6.9
2017-Dec-08 00:29N 34°02' W 119°16'5 9.9
2017-Dec-07 23:59N 34°03' W 119°22'4 8.3
2017-Dec-07 23:30N 34°04' W 119°26'4 8.5
2017-Dec-07 22:59N 34°06' W 119°31'510.6
2017-Dec-07 22:30N 34°07' W 119°37'510.5
2017-Dec-07 22:00N 34°08' W 119°43'510.4
2017-Dec-07 21:30N 34°10' W 119°49'510.8
2017-Dec-07 21:00N 34°11' W 119°55'710.9
2017-Dec-07 20:24N 34°13' W 120°03'511.4
2017-Dec-07 19:59N 34°14' W 120°09'611.3
2017-Dec-07 19:28N 34°16' W 120°16'511.0
2017-Dec-07 19:00N 34°17' W 120°21'611.0
2017-Dec-07 18:30N 34°19' W 120°28'610.9
2017-Dec-07 17:58N 34°20' W 120°35'511.1
2017-Dec-07 17:30N 34°22' W 120°41'611.3
2017-Dec-07 17:00N 34°23' W 120°47'713.9
2017-Dec-07 16:30N 34°25' W 120°55'816.6
2017-Dec-07 16:00N 34°27' W 121°05'816.8
2017-Dec-07 15:31N 34°30' W 121°15'4 7.9
2017-Dec-07 15:00N 34°31' W 121°19'715.0
2017-Dec-07 14:31N 34°27' W 121°27'815.0
2017-Dec-07 14:00N 34°23' W 121°35'815.5
2017-Dec-07 13:31N 34°30' W 121°37'817.0
2017-Dec-07 13:00N 34°36' W 121°29'815.7
2017-Dec-07 12:31N 34°43' W 121°27'816.7
2017-Dec-07 12:00N 34°51' W 121°31'816.8
2017-Dec-07 11:31N 34°59' W 121°35'816.5
2017-Dec-07 11:00N 35°06' W 121°40'816.5
2017-Dec-07 10:31N 35°14' W 121°44'816.8
2017-Dec-07 10:00N 35°21' W 121°48'816.7
2017-Dec-07 09:31N 35°29' W 121°52'816.8
2017-Dec-07 09:00N 35°37' W 121°56'817.0
2017-Dec-07 08:30N 35°44' W 122°00'816.4
2017-Dec-07 08:00N 35°52' W 122°05'816.5
2017-Dec-07 07:30N 35°59' W 122°09'817.0
2017-Dec-07 07:00N 36°07' W 122°13'816.5
2017-Dec-07 06:30N 36°15' W 122°17'816.7
2017-Dec-07 06:00N 36°22' W 122°21'816.8
2017-Dec-07 05:30N 36°30' W 122°24'917.3
2017-Dec-07 05:00N 36°38' W 122°28'917.3
2017-Dec-07 04:30N 36°46' W 122°32'917.4
2017-Dec-07 04:00N 36°55' W 122°36'917.5
2017-Dec-07 03:30N 37°03' W 122°40'916.8
2017-Dec-07 02:58N 37°11' W 122°44'817.7
2017-Dec-07 02:30N 37°19' W 122°44'917.9
2017-Dec-07 02:01N 37°28' W 122°44'917.2
2017-Dec-07 01:31N 37°37' W 122°44'815.5
2017-Dec-07 01:00N 37°44' W 122°40'713.4
2017-Dec-07 00:30N 37°48' W 122°33'714.6
2017-Dec-07 00:00N 37°48' W 122°24'3 6.9
2017-Dec-06 23:30N 37°45' W 122°23'0 0.1
2017-Dec-06 23:00N 37°45' W 122°23'0 0.0
2017-Dec-06 22:30N 37°45' W 122°23'0 0.0
2017-Dec-06 22:00N 37°45' W 122°23'0 0.0
2017-Dec-06 21:30N 37°45' W 122°23'0 0.0
2017-Dec-06 20:57N 37°45' W 122°23'  
2017-Dec-03 11:23N 45°03' W 124°35'617.0
2017-Dec-03 11:00N 45°09' W 124°33'816.8
2017-Dec-03 10:30N 45°18' W 124°31'816.6
2017-Dec-03 10:00N 45°26' W 124°29'816.6
2017-Dec-03 09:30N 45°34' W 124°26'816.5
2017-Dec-03 09:00N 45°42' W 124°24'816.5
2017-Dec-03 08:30N 45°50' W 124°22'816.0
2017-Dec-03 08:00N 45°58' W 124°20'816.1
2017-Dec-03 07:30N 46°05' W 124°15'916.6
2017-Dec-03 06:59N 46°13' W 124°09'612.6
2017-Dec-03 06:31N 46°15' W 124°01'613.0
2017-Dec-03 06:00N 46°11' W 123°54'5 9.2
2017-Dec-03 05:30N 46°13' W 123°47'713.8
2017-Dec-03 05:01N 46°16' W 123°38'815.0
2017-Dec-03 04:31N 46°16' W 123°27'713.7
2017-Dec-03 04:00N 46°09' W 123°24'713.3
2017-Dec-03 03:31N 46°10' W 123°14'714.4
2017-Dec-03 03:01N 46°09' W 123°04'713.1
2017-Dec-03 02:31N 46°06' W 122°56'611.2
2017-Dec-03 02:00N 46°01' W 122°51'612.6
2017-Dec-03 01:30N 45°55' W 122°48'714.5
2017-Dec-03 01:01N 45°48' W 122°47'714.3
2017-Dec-03 00:31N 45°41' W 122°46'3 5.8
2017-Dec-02 23:56N 45°38' W 122°43'0 0.0
2017-Dec-02 23:29N 45°38' W 122°43'0 0.0
2017-Dec-02 22:59N 45°38' W 122°43'0 0.0
2017-Dec-02 22:26N 45°38' W 122°43'0 0.0
2017-Dec-02 21:56N 45°38' W 122°43'0 0.0
2017-Dec-02 21:29N 45°38' W 122°43'0 0.0
2017-Dec-02 20:59N 45°38' W 122°43'0 0.0
2017-Dec-02 20:29N 45°38' W 122°43'0 0.0
2017-Dec-02 19:59N 45°38' W 122°43'0 0.0
2017-Dec-02 19:20N 45°38' W 122°43'0 0.0
2017-Dec-02 18:59N 45°38' W 122°43'0 0.0
2017-Dec-02 18:26N 45°38' W 122°43'0 0.0
2017-Dec-02 17:59N 45°38' W 122°43'0 0.0
2017-Dec-02 17:26N 45°38' W 122°43'0 0.0
2017-Dec-02 16:56N 45°38' W 122°43'0 0.0
2017-Dec-02 16:26N 45°38' W 122°43'0 0.0
2017-Dec-02 15:50N 45°38' W 122°43'0 0.0
2017-Dec-02 15:29N 45°38' W 122°43'0 0.0
2017-Dec-02 14:56N 45°38' W 122°43'0 0.0
2017-Dec-02 14:28N 45°38' W 122°43'0 0.0
2017-Dec-02 13:58N 45°38' W 122°43'0 0.0
2017-Dec-02 13:22N 45°38' W 122°43'0 0.0
2017-Dec-02 12:52N 45°38' W 122°43'0 0.0
2017-Dec-02 12:28N 45°38' W 122°43'0 0.0
2017-Dec-02 11:58N 45°38' W 122°43'0 0.0
2017-Dec-02 11:28N 45°38' W 122°43'0 0.0
2017-Dec-02 10:55N 45°38' W 122°43'0 0.0
2017-Dec-02 10:28N 45°38' W 122°43'0 0.0
2017-Dec-02 09:58N 45°38' W 122°43'0 0.0
2017-Dec-02 09:28N 45°38' W 122°43'0 0.0
2017-Dec-02 08:58N 45°38' W 122°43'0 0.0
2017-Dec-02 08:25N 45°38' W 122°43'0 0.0
2017-Dec-02 07:58N 45°38' W 122°43'0 0.0
2017-Dec-02 07:25N 45°38' W 122°43'0 0.0
2017-Dec-02 06:58N 45°38' W 122°43'0 0.0
2017-Dec-02 06:28N 45°38' W 122°43'0 0.0
2017-Dec-02 05:55N 45°38' W 122°43'0 0.0
2017-Dec-02 05:28N 45°38' W 122°43'0 0.0
2017-Dec-02 04:58N 45°38' W 122°43'0 0.0
2017-Dec-02 04:28N 45°38' W 122°43'0 0.0
2017-Dec-02 03:55N 45°38' W 122°43'0 0.0
2017-Dec-02 03:28N 45°38' W 122°43'0 0.0
2017-Dec-02 02:58N 45°38' W 122°43'0 0.0
2017-Dec-02 02:25N 45°38' W 122°43'0 0.0
2017-Dec-02 01:58N 45°38' W 122°43'0 0.1
2017-Dec-02 01:30N 45°38' W 122°43'0 0.3
2017-Dec-02 01:00N 45°38' W 122°43'2 3.1
2017-Dec-02 00:30N 45°39' W 122°45'1 1.8
2017-Dec-02 00:00N 45°38' W 122°44'0 0.0
2017-Dec-01 23:30N 45°38' W 122°44'0 0.0
2017-Dec-01 23:00N 45°38' W 122°44'0 0.0
2017-Dec-01 22:30N 45°38' W 122°44'0 0.0
2017-Dec-01 21:54N 45°38' W 122°44'0 0.0
2017-Dec-01 21:24N 45°38' W 122°44'0 0.0
2017-Dec-01 20:57N 45°38' W 122°44'0 0.0
2017-Dec-01 20:27N 45°38' W 122°44'0 0.0
2017-Dec-01 20:00N 45°38' W 122°44'0 0.0
2017-Dec-01 19:30N 45°38' W 122°44'0 0.0
2017-Dec-01 18:57N 45°38' W 122°44'0 0.0
2017-Dec-01 18:30N 45°38' W 122°44'0 0.0
2017-Dec-01 18:00N 45°38' W 122°44'0 0.0
2017-Dec-01 17:30N 45°38' W 122°44'0 0.0
2017-Dec-01 16:57N 45°38' W 122°44'0 0.0
2017-Dec-01 16:30N 45°38' W 122°44'0 0.0
2017-Dec-01 16:00N 45°38' W 122°44'0 0.0
2017-Dec-01 15:30N 45°38' W 122°44'0 0.0
2017-Dec-01 15:00N 45°38' W 122°44'0 0.0
2017-Dec-01 14:30N 45°38' W 122°44'0 0.0
2017-Dec-01 14:00N 45°38' W 122°44'0 0.0
2017-Dec-01 13:30N 45°38' W 122°44'0 0.0
2017-Dec-01 13:00N 45°38' W 122°44'0 0.0
2017-Dec-01 12:30N 45°38' W 122°44'0 0.0
2017-Dec-01 12:00N 45°38' W 122°44'0 0.0
2017-Dec-01 11:15N 45°38' W 122°44'0 0.0
2017-Dec-01 11:00N 45°38' W 122°44'0 0.0
2017-Dec-01 10:27N 45°38' W 122°44'0 0.0
2017-Dec-01 10:00N 45°38' W 122°44'0 0.0
2017-Dec-01 09:30N 45°38' W 122°44'0 0.0
2017-Dec-01 08:54N 45°38' W 122°44'0 0.0
2017-Dec-01 08:30N 45°38' W 122°44'0 0.0
2017-Dec-01 08:00N 45°38' W 122°44'0 0.0
2017-Dec-01 07:30N 45°38' W 122°44'0 0.0
2017-Dec-01 07:00N 45°38' W 122°44'0 0.0
2017-Dec-01 06:30N 45°38' W 122°44'0 0.0
2017-Dec-01 05:57N 45°38' W 122°44'0 0.0
2017-Dec-01 05:30N 45°38' W 122°44'0 0.0
2017-Dec-01 05:00N 45°38' W 122°44'0 0.0
2017-Dec-01 04:30N 45°38' W 122°44'0 0.0
2017-Dec-01 04:00N 45°38' W 122°44'0 0.0
2017-Dec-01 03:30N 45°38' W 122°44'0 0.0
2017-Dec-01 03:00N 45°38' W 122°44'0 0.8
2017-Dec-01 02:31N 45°38' W 122°45'4 7.0
2017-Dec-01 01:58N 45°42' W 122°46'612.9
2017-Dec-01 01:30N 45°48' W 122°47'1013.1
2017-Dec-01 00:43N 45°58' W 122°49'313.5
2017-Dec-01 00:30N 46°01' W 122°51'612.1
2017-Dec-01 00:00N 46°06' W 122°56'612.2
2017-Nov-30 23:31N 46°09' W 123°03'713.1
2017-Nov-30 23:00N 46°11' W 123°12'713.1
2017-Nov-30 22:31N 46°09' W 123°21'611.0
2017-Nov-30 22:01N 46°13' W 123°25'510.9
2017-Nov-30 21:31N 46°16' W 123°33'713.2
2017-Nov-30 21:00N 46°15' W 123°42'510.8
2017-Nov-30 20:30N 46°12' W 123°49'5 9.2
2017-Nov-30 20:00N 46°12' W 123°56'510.8
2017-Nov-30 19:30N 46°15' W 124°01'611.4
2017-Nov-30 19:01N 46°13' W 124°09'714.4
2017-Nov-30 18:30N 46°10' W 124°18'1 2.2
2017-Nov-30 18:00N 46°11' W 124°18'612.6
2017-Nov-30 17:31N 46°17' W 124°19'  
Track history (hours):
 
Tides and Currents Weather Stations Pressure Air Temp Water Temp Dewpoint Dewpoint Depression Visibility Wind Speed Wind Dir Waves Ship Positions

Green Lake

Owner: Seabulk Fleet Management, Tampa, FL. More information available from US FCC via Universal Licensing System and Coast Guard Vessel Documentation Center.

Last reported at 2017-Dec-10 17:24 UTC. Time now 2017-Dec-13 22:27 UTC.
Position N 34°18' W 125°26'.

Type: Ship. MMSI: 369527000.

Date/timePositionNaut miles runAvg speedWind from/ knotsBaromVisibWave heightAir tempDewpointWater temp
2017-Dec-10 17:24N 34°18' W 125°26'1 2.2
2017-Dec-10 17:01N 34°18' W 125°25'1 1.4
2017-Dec-10 16:04N 34°20' W 125°25'0 1.1
2017-Dec-10 15:59N 34°20' W 125°25'1 1.3
2017-Dec-10 15:20N 34°20' W 125°26'1 1.2
2017-Dec-10 14:52N 34°21' W 125°26'2 1.2
2017-Dec-10 13:28N 34°22' W 125°27'3 1.4
2017-Dec-10 10:58N 34°26' W 125°29'1 1.3
2017-Dec-10 10:23N 34°26' W 125°29'1 1.3
2017-Dec-10 09:51N 34°27' W 125°29'1 1.3
2017-Dec-10 09:18N 34°28' W 125°30'0 1.3
2017-Dec-10 09:00N 34°28' W 125°30'1 1.1
2017-Dec-10 08:30N 34°28' W 125°30'0 0.8
2017-Dec-10 08:00N 34°29' W 125°30'0 0.5
2017-Dec-10 07:30N 34°29' W 125°30'0 0.2
2017-Dec-10 07:00N 34°29' W 125°30'2 4.0
2017-Dec-10 06:30N 34°29' W 125°28'816.1
2017-Dec-10 06:00N 34°31' W 125°18'917.1
2017-Dec-10 05:30N 34°31' W 125°08'816.8
2017-Dec-10 05:01N 34°31' W 124°58'816.7
2017-Dec-10 04:30N 34°31' W 124°48'917.2
2017-Dec-10 04:00N 34°31' W 124°37'917.6
2017-Dec-10 03:30N 34°31' W 124°27'917.6
2017-Dec-10 03:01N 34°31' W 124°16'917.4
2017-Dec-10 02:30N 34°30' W 124°05'917.4
2017-Dec-10 02:00N 34°30' W 123°55'917.4
2017-Dec-10 01:31N 34°30' W 123°44'1417.5
2017-Dec-10 00:41N 34°30' W 123°27'317.6
2017-Dec-10 00:29N 34°30' W 123°23'917.6
2017-Dec-10 00:00N 34°30' W 123°12'917.6
2017-Dec-09 23:30N 34°30' W 123°02'917.6
2017-Dec-09 23:00N 34°29' W 122°51'917.7
2017-Dec-09 22:30N 34°29' W 122°40'917.4
2017-Dec-09 22:00N 34°29' W 122°30'817.2
2017-Dec-09 21:30N 34°29' W 122°19'917.0
2017-Dec-09 21:00N 34°29' W 122°09'917.3
2017-Dec-09 20:30N 34°29' W 121°58'917.4
2017-Dec-09 20:00N 34°29' W 121°48'917.4
2017-Dec-09 19:30N 34°28' W 121°37'917.5
2017-Dec-09 19:00N 34°28' W 121°27'917.7
2017-Dec-09 18:31N 34°28' W 121°16'917.7
2017-Dec-09 18:01N 34°28' W 121°05'917.2
2017-Dec-09 17:31N 34°27' W 120°55'917.3
2017-Dec-09 17:01N 34°25' W 120°45'917.6
2017-Dec-09 16:30N 34°23' W 120°34'917.5
2017-Dec-09 16:00N 34°20' W 120°24'917.6
2017-Dec-09 15:30N 34°18' W 120°14'917.8
2017-Dec-09 15:00N 34°15' W 120°04'918.0
2017-Dec-09 14:30N 34°13' W 119°53'917.8
2017-Dec-09 14:00N 34°10' W 119°43'918.1
2017-Dec-09 13:30N 34°08' W 119°32'918.1
2017-Dec-09 13:00N 34°05' W 119°22'714.0
2017-Dec-09 12:30N 34°08' W 119°14'2 1.6
2017-Dec-09 11:32N 34°09' W 119°12'0 0.0
2017-Dec-09 08:47N 34°09' W 119°12'0 0.0
2017-Dec-09 07:17N 34°09' W 119°12'0 0.0
2017-Dec-09 06:47N 34°09' W 119°12'0 0.0
2017-Dec-09 06:29N 34°09' W 119°12'0 0.0
2017-Dec-09 05:59N 34°09' W 119°12'0 0.0
2017-Dec-09 05:17N 34°09' W 119°12'0 0.0
2017-Dec-09 04:56N 34°09' W 119°12'0 0.0
2017-Dec-09 04:20N 34°09' W 119°12'0 0.0
2017-Dec-09 03:53N 34°09' W 119°12'0 0.0
2017-Dec-09 03:29N 34°09' W 119°12'0 0.0
2017-Dec-09 01:47N 34°09' W 119°12'0 0.0
2017-Dec-09 01:17N 34°09' W 119°12'0 0.0
2017-Dec-08 22:59N 34°09' W 119°12'0 0.0
2017-Dec-08 22:11N 34°09' W 119°12'0 0.0
2017-Dec-08 21:35N 34°09' W 119°12'0 0.0
2017-Dec-08 19:44N 34°09' W 119°12'0 0.0
2017-Dec-08 19:29N 34°09' W 119°12'0 0.0
2017-Dec-08 14:56N 34°09' W 119°12'0 0.0
2017-Dec-08 14:29N 34°09' W 119°12'0 0.0
2017-Dec-08 10:16N 34°09' W 119°12'0 0.0
2017-Dec-08 09:58N 34°09' W 119°12'0 0.0
2017-Dec-08 09:29N 34°09' W 119°12'0 0.0
2017-Dec-08 09:00N 34°09' W 119°12'0 0.0
2017-Dec-08 08:28N 34°09' W 119°12'0 0.0
2017-Dec-08 08:00N 34°09' W 119°12'0 0.0
2017-Dec-08 07:28N 34°09' W 119°12'0 0.0
2017-Dec-08 06:57N 34°09' W 119°12'0 0.0
2017-Dec-08 06:30N 34°09' W 119°12'0 0.0
2017-Dec-08 05:58N 34°09' W 119°12'0 0.0
2017-Dec-08 05:30N 34°09' W 119°12'0 0.0
2017-Dec-08 04:59N 34°09' W 119°12'0 0.0
2017-Dec-08 04:30N 34°09' W 119°12'0 0.0
2017-Dec-08 03:59N 34°09' W 119°12'0 0.0
2017-Dec-08 03:30N 34°09' W 119°12'0 0.7
2017-Dec-08 03:00N 34°09' W 119°13'4 6.8
2017-Dec-08 02:28N 34°06' W 119°16'1 1.3
2017-Dec-08 02:00N 34°06' W 119°15'2 3.9
2017-Dec-08 01:30N 34°04' W 119°13'3 5.6
2017-Dec-08 00:57N 34°01' W 119°12'3 6.9
2017-Dec-08 00:29N 34°02' W 119°16'5 9.9
2017-Dec-07 23:59N 34°03' W 119°22'4 8.3
2017-Dec-07 23:30N 34°04' W 119°26'4 8.5
2017-Dec-07 22:59N 34°06' W 119°31'510.6
2017-Dec-07 22:30N 34°07' W 119°37'510.5
2017-Dec-07 22:00N 34°08' W 119°43'510.4
2017-Dec-07 21:30N 34°10' W 119°49'510.8
2017-Dec-07 21:00N 34°11' W 119°55'710.9
2017-Dec-07 20:24N 34°13' W 120°03'511.4
2017-Dec-07 19:59N 34°14' W 120°09'611.3
2017-Dec-07 19:28N 34°16' W 120°16'511.0
2017-Dec-07 19:00N 34°17' W 120°21'611.0
2017-Dec-07 18:30N 34°19' W 120°28'610.9
2017-Dec-07 17:58N 34°20' W 120°35'511.1
2017-Dec-07 17:30N 34°22' W 120°41'611.3
2017-Dec-07 17:00N 34°23' W 120°47'713.9
2017-Dec-07 16:30N 34°25' W 120°55'816.6
2017-Dec-07 16:00N 34°27' W 121°05'816.8
2017-Dec-07 15:31N 34°30' W 121°15'4 7.9
2017-Dec-07 15:00N 34°31' W 121°19'715.0
2017-Dec-07 14:31N 34°27' W 121°27'815.0
2017-Dec-07 14:00N 34°23' W 121°35'815.5
2017-Dec-07 13:31N 34°30' W 121°37'817.0
2017-Dec-07 13:00N 34°36' W 121°29'815.7
2017-Dec-07 12:31N 34°43' W 121°27'816.7
2017-Dec-07 12:00N 34°51' W 121°31'816.8
2017-Dec-07 11:31N 34°59' W 121°35'816.5
2017-Dec-07 11:00N 35°06' W 121°40'816.5
2017-Dec-07 10:31N 35°14' W 121°44'816.8
2017-Dec-07 10:00N 35°21' W 121°48'816.7
2017-Dec-07 09:31N 35°29' W 121°52'816.8
2017-Dec-07 09:00N 35°37' W 121°56'817.0
2017-Dec-07 08:30N 35°44' W 122°00'816.4
2017-Dec-07 08:00N 35°52' W 122°05'816.5
2017-Dec-07 07:30N 35°59' W 122°09'817.0
2017-Dec-07 07:00N 36°07' W 122°13'816.5
2017-Dec-07 06:30N 36°15' W 122°17'816.7
2017-Dec-07 06:00N 36°22' W 122°21'816.8
2017-Dec-07 05:30N 36°30' W 122°24'917.3
2017-Dec-07 05:00N 36°38' W 122°28'917.3
2017-Dec-07 04:30N 36°46' W 122°32'917.4
2017-Dec-07 04:00N 36°55' W 122°36'917.5
2017-Dec-07 03:30N 37°03' W 122°40'916.8
2017-Dec-07 02:58N 37°11' W 122°44'817.7
2017-Dec-07 02:30N 37°19' W 122°44'917.9
2017-Dec-07 02:01N 37°28' W 122°44'917.2
2017-Dec-07 01:31N 37°37' W 122°44'815.5
2017-Dec-07 01:00N 37°44' W 122°40'713.4
2017-Dec-07 00:30N 37°48' W 122°33'714.6
2017-Dec-07 00:00N 37°48' W 122°24'3 6.9
2017-Dec-06 23:30N 37°45' W 122°23'0 0.1
2017-Dec-06 23:00N 37°45' W 122°23'0 0.0
2017-Dec-06 22:30N 37°45' W 122°23'0 0.0
2017-Dec-06 22:00N 37°45' W 122°23'0 0.0
2017-Dec-06 21:30N 37°45' W 122°23'0 0.0
2017-Dec-06 20:57N 37°45' W 122°23'  
2017-Dec-03 11:23N 45°03' W 124°35'617.0
2017-Dec-03 11:00N 45°09' W 124°33'816.8
2017-Dec-03 10:30N 45°18' W 124°31'816.6
2017-Dec-03 10:00N 45°26' W 124°29'816.6
2017-Dec-03 09:30N 45°34' W 124°26'816.5
2017-Dec-03 09:00N 45°42' W 124°24'816.5
2017-Dec-03 08:30N 45°50' W 124°22'816.0
2017-Dec-03 08:00N 45°58' W 124°20'816.1
2017-Dec-03 07:30N 46°05' W 124°15'916.6
2017-Dec-03 06:59N 46°13' W 124°09'612.6
2017-Dec-03 06:31N 46°15' W 124°01'613.0
2017-Dec-03 06:00N 46°11' W 123°54'5 9.2
2017-Dec-03 05:30N 46°13' W 123°47'713.8
2017-Dec-03 05:01N 46°16' W 123°38'815.0
2017-Dec-03 04:31N 46°16' W 123°27'713.7
2017-Dec-03 04:00N 46°09' W 123°24'713.3
2017-Dec-03 03:31N 46°10' W 123°14'714.4
2017-Dec-03 03:01N 46°09' W 123°04'713.1
2017-Dec-03 02:31N 46°06' W 122°56'611.2
2017-Dec-03 02:00N 46°01' W 122°51'612.6
2017-Dec-03 01:30N 45°55' W 122°48'714.5
2017-Dec-03 01:01N 45°48' W 122°47'714.3
2017-Dec-03 00:31N 45°41' W 122°46'3 5.8
2017-Dec-02 23:56N 45°38' W 122°43'0 0.0
2017-Dec-02 23:29N 45°38' W 122°43'0 0.0
2017-Dec-02 22:59N 45°38' W 122°43'0 0.0
2017-Dec-02 22:26N 45°38' W 122°43'0 0.0
2017-Dec-02 21:56N 45°38' W 122°43'0 0.0
2017-Dec-02 21:29N 45°38' W 122°43'0 0.0
2017-Dec-02 20:59N 45°38' W 122°43'0 0.0
2017-Dec-02 20:29N 45°38' W 122°43'0 0.0
2017-Dec-02 19:59N 45°38' W 122°43'0 0.0
2017-Dec-02 19:20N 45°38' W 122°43'0 0.0
2017-Dec-02 18:59N 45°38' W 122°43'0 0.0
2017-Dec-02 18:26N 45°38' W 122°43'0 0.0
2017-Dec-02 17:59N 45°38' W 122°43'0 0.0
2017-Dec-02 17:26N 45°38' W 122°43'0 0.0
2017-Dec-02 16:56N 45°38' W 122°43'0 0.0
2017-Dec-02 16:26N 45°38' W 122°43'0 0.0
2017-Dec-02 15:50N 45°38' W 122°43'0 0.0
2017-Dec-02 15:29N 45°38' W 122°43'0 0.0
2017-Dec-02 14:56N 45°38' W 122°43'0 0.0
2017-Dec-02 14:28N 45°38' W 122°43'0 0.0
2017-Dec-02 13:58N 45°38' W 122°43'0 0.0
2017-Dec-02 13:22N 45°38' W 122°43'0 0.0
2017-Dec-02 12:52N 45°38' W 122°43'0 0.0
2017-Dec-02 12:28N 45°38' W 122°43'0 0.0
2017-Dec-02 11:58N 45°38' W 122°43'0 0.0
2017-Dec-02 11:28N 45°38' W 122°43'0 0.0
2017-Dec-02 10:55N 45°38' W 122°43'0 0.0
2017-Dec-02 10:28N 45°38' W 122°43'0 0.0
2017-Dec-02 09:58N 45°38' W 122°43'0 0.0
2017-Dec-02 09:28N 45°38' W 122°43'0 0.0
2017-Dec-02 08:58N 45°38' W 122°43'0 0.0
2017-Dec-02 08:25N 45°38' W 122°43'0 0.0
2017-Dec-02 07:58N 45°38' W 122°43'0 0.0
2017-Dec-02 07:25N 45°38' W 122°43'0 0.0
2017-Dec-02 06:58N 45°38' W 122°43'0 0.0
2017-Dec-02 06:28N 45°38' W 122°43'0 0.0
2017-Dec-02 05:55N 45°38' W 122°43'0 0.0
2017-Dec-02 05:28N 45°38' W 122°43'0 0.0
2017-Dec-02 04:58N 45°38' W 122°43'0 0.0
2017-Dec-02 04:28N 45°38' W 122°43'0 0.0
2017-Dec-02 03:55N 45°38' W 122°43'0 0.0
2017-Dec-02 03:28N 45°38' W 122°43'0 0.0
2017-Dec-02 02:58N 45°38' W 122°43'0 0.0
2017-Dec-02 02:25N 45°38' W 122°43'0 0.0
2017-Dec-02 01:58N 45°38' W 122°43'0 0.1
2017-Dec-02 01:30N 45°38' W 122°43'0 0.3
2017-Dec-02 01:00N 45°38' W 122°43'2 3.1
2017-Dec-02 00:30N 45°39' W 122°45'1 1.8
2017-Dec-02 00:00N 45°38' W 122°44'0 0.0
2017-Dec-01 23:30N 45°38' W 122°44'0 0.0
2017-Dec-01 23:00N 45°38' W 122°44'0 0.0
2017-Dec-01 22:30N 45°38' W 122°44'0 0.0
2017-Dec-01 21:54N 45°38' W 122°44'0 0.0
2017-Dec-01 21:24N 45°38' W 122°44'0 0.0
2017-Dec-01 20:57N 45°38' W 122°44'0 0.0
2017-Dec-01 20:27N 45°38' W 122°44'0 0.0
2017-Dec-01 20:00N 45°38' W 122°44'0 0.0
2017-Dec-01 19:30N 45°38' W 122°44'0 0.0
2017-Dec-01 18:57N 45°38' W 122°44'0 0.0
2017-Dec-01 18:30N 45°38' W 122°44'0 0.0
2017-Dec-01 18:00N 45°38' W 122°44'0 0.0
2017-Dec-01 17:30N 45°38' W 122°44'0 0.0
2017-Dec-01 16:57N 45°38' W 122°44'0 0.0
2017-Dec-01 16:30N 45°38' W 122°44'0 0.0
2017-Dec-01 16:00N 45°38' W 122°44'0 0.0
2017-Dec-01 15:30N 45°38' W 122°44'0 0.0
2017-Dec-01 15:00N 45°38' W 122°44'0 0.0
2017-Dec-01 14:30N 45°38' W 122°44'0 0.0
2017-Dec-01 14:00N 45°38' W 122°44'0 0.0
2017-Dec-01 13:30N 45°38' W 122°44'0 0.0
2017-Dec-01 13:00N 45°38' W 122°44'0 0.0
2017-Dec-01 12:30N 45°38' W 122°44'0 0.0
2017-Dec-01 12:00N 45°38' W 122°44'0 0.0
2017-Dec-01 11:15N 45°38' W 122°44'0 0.0
2017-Dec-01 11:00N 45°38' W 122°44'0 0.0
2017-Dec-01 10:27N 45°38' W 122°44'0 0.0
2017-Dec-01 10:00N 45°38' W 122°44'0 0.0
2017-Dec-01 09:30N 45°38' W 122°44'0 0.0
2017-Dec-01 08:54N 45°38' W 122°44'0 0.0
2017-Dec-01 08:30N 45°38' W 122°44'0 0.0
2017-Dec-01 08:00N 45°38' W 122°44'0 0.0
2017-Dec-01 07:30N 45°38' W 122°44'0 0.0
2017-Dec-01 07:00N 45°38' W 122°44'0 0.0
2017-Dec-01 06:30N 45°38' W 122°44'0 0.0
2017-Dec-01 05:57N 45°38' W 122°44'0 0.0
2017-Dec-01 05:30N 45°38' W 122°44'0 0.0
2017-Dec-01 05:00N 45°38' W 122°44'0 0.0
2017-Dec-01 04:30N 45°38' W 122°44'0 0.0
2017-Dec-01 04:00N 45°38' W 122°44'0 0.0
2017-Dec-01 03:30N 45°38' W 122°44'0 0.0
2017-Dec-01 03:00N 45°38' W 122°44'0 0.8
2017-Dec-01 02:31N 45°38' W 122°45'4 7.0
2017-Dec-01 01:58N 45°42' W 122°46'612.9
2017-Dec-01 01:30N 45°48' W 122°47'1013.1
2017-Dec-01 00:43N 45°58' W 122°49'313.5
2017-Dec-01 00:30N 46°01' W 122°51'612.1
2017-Dec-01 00:00N 46°06' W 122°56'612.2
2017-Nov-30 23:31N 46°09' W 123°03'713.1
2017-Nov-30 23:00N 46°11' W 123°12'713.1
2017-Nov-30 22:31N 46°09' W 123°21'611.0
2017-Nov-30 22:01N 46°13' W 123°25'510.9
2017-Nov-30 21:31N 46°16' W 123°33'713.2
2017-Nov-30 21:00N 46°15' W 123°42'510.8
2017-Nov-30 20:30N 46°12' W 123°49'5 9.2
2017-Nov-30 20:00N 46°12' W 123°56'510.8
2017-Nov-30 19:30N 46°15' W 124°01'611.4
2017-Nov-30 19:01N 46°13' W 124°09'714.4
2017-Nov-30 18:30N 46°10' W 124°18'1 2.2
2017-Nov-30 18:00N 46°11' W 124°18'612.6
2017-Nov-30 17:31N 46°17' W 124°19'  

Dump ship's entire track history